createdAt,value
2018-02-07T00:00:35.805Z,-0.40
2018-02-07T00:03:03.248Z,-0.50
2018-02-07T00:05:30.767Z,-0.50
2018-02-07T00:07:58.385Z,-0.50
2018-02-07T00:10:25.687Z,-0.60
2018-02-07T00:12:53.086Z,-0.60
2018-02-07T00:15:20.827Z,-0.60
2018-02-07T00:17:48.186Z,-0.60
2018-02-07T00:20:16.344Z,-0.60
2018-02-07T00:22:43.785Z,-0.60
2018-02-07T00:25:11.325Z,-0.60
2018-02-07T00:27:38.845Z,-0.60
2018-02-07T00:30:06.364Z,-0.60
2018-02-07T00:32:33.785Z,-0.60
2018-02-07T00:35:01.264Z,-0.60
2018-02-07T00:37:28.685Z,-0.60
2018-02-07T00:39:55.967Z,-0.60
2018-02-07T00:42:23.504Z,-0.60
2018-02-07T00:44:50.805Z,-0.60
2018-02-07T00:47:18.266Z,-0.60
2018-02-07T00:49:45.734Z,-0.60
2018-02-07T00:52:13.845Z,-0.60
2018-02-07T00:54:41.206Z,-0.60
2018-02-07T00:57:08.545Z,-0.60
2018-02-07T00:59:35.845Z,-0.60
2018-02-07T01:02:03.135Z,-0.80
2018-02-07T01:04:30.573Z,-0.70
2018-02-07T01:06:57.955Z,-0.60
2018-02-07T01:09:26.073Z,-0.60
2018-02-07T01:11:53.574Z,-0.60
2018-02-07T01:14:21.014Z,-0.50
2018-02-07T01:16:48.293Z,-0.50
2018-02-07T01:19:16.475Z,-0.50
2018-02-07T01:21:44.014Z,-0.50
2018-02-07T01:24:11.649Z,-0.50
2018-02-07T01:26:39.109Z,-0.50
2018-02-07T01:29:06.709Z,-0.50
2018-02-07T01:31:34.389Z,-0.50
2018-02-07T01:34:03.467Z,-0.50
2018-02-07T01:36:30.928Z,-0.50
2018-02-07T01:38:58.306Z,-0.50
2018-02-07T01:41:26.165Z,-0.40
2018-02-07T01:43:53.548Z,-0.40
2018-02-07T01:46:21.089Z,-0.40
2018-02-07T01:48:48.606Z,-0.50
2018-02-07T01:51:15.945Z,-0.50
2018-02-07T01:53:43.267Z,-0.60
2018-02-07T01:56:10.587Z,-0.60
2018-02-07T01:58:38.366Z,-0.60
2018-02-07T02:01:05.746Z,-0.60
2018-02-07T02:03:33.086Z,-0.60
2018-02-07T02:06:00.826Z,-0.60
2018-02-07T02:08:28.206Z,-0.60
2018-02-07T02:10:55.586Z,-0.60
2018-02-07T02:13:22.869Z,-0.70
2018-02-07T02:15:50.226Z,-0.70
2018-02-07T02:18:17.726Z,-0.70
2018-02-07T02:20:45.106Z,-0.70
2018-02-07T02:23:12.526Z,-0.60
2018-02-07T02:25:39.926Z,-0.60
2018-02-07T02:28:07.205Z,-0.60
2018-02-07T02:30:34.746Z,-0.60
2018-02-07T02:33:02.167Z,-0.60
2018-02-07T02:35:29.487Z,-0.60
2018-02-07T02:37:56.765Z,-0.50
2018-02-07T02:40:24.931Z,-0.50
2018-02-07T02:42:52.305Z,-0.60
2018-02-07T02:45:21.066Z,-0.60
2018-02-07T02:47:48.468Z,-0.60
2018-02-07T02:50:15.867Z,-0.60
2018-02-07T02:52:43.166Z,-0.50
2018-02-07T02:55:10.506Z,-0.50
2018-02-07T02:57:37.894Z,-0.60
2018-02-07T03:00:05.386Z,-0.60
2018-02-07T03:02:33.226Z,-0.70
2018-02-07T03:05:00.631Z,-0.80
2018-02-07T03:07:27.986Z,-0.80
2018-02-07T03:09:56.006Z,-0.80
2018-02-07T03:12:24.146Z,-0.80
2018-02-07T03:14:51.487Z,-0.70
2018-02-07T03:17:18.866Z,-0.60
2018-02-07T03:19:46.287Z,-0.60
2018-02-07T03:22:13.727Z,-0.60
2018-02-07T03:24:41.571Z,-0.50
2018-02-07T03:27:09.085Z,-0.60
2018-02-07T03:29:36.527Z,-0.60
2018-02-07T03:32:03.965Z,-0.50
2018-02-07T03:34:32.206Z,-0.50
2018-02-07T03:36:59.545Z,-0.50
2018-02-07T03:39:27.331Z,-0.50
2018-02-07T03:41:54.891Z,-0.50
2018-02-07T03:44:23.006Z,-0.50
2018-02-07T03:46:51.166Z,-0.50
2018-02-07T03:49:19.006Z,-0.50
2018-02-07T03:51:46.466Z,-0.50
2018-02-07T03:54:13.882Z,-0.50
2018-02-07T03:56:41.266Z,-0.50
2018-02-07T03:59:08.767Z,-0.60
2018-02-07T04:01:36.935Z,-0.60
2018-02-07T04:04:04.451Z,-0.60
2018-02-07T04:06:31.870Z,-0.60
2018-02-07T04:08:59.268Z,-0.60
2018-02-07T04:11:26.707Z,-0.60
2018-02-07T04:13:54.233Z,-0.60
2018-02-07T04:16:21.932Z,-0.60
2018-02-07T04:18:49.347Z,-0.50
2018-02-07T04:21:16.767Z,-0.50
2018-02-07T04:23:44.487Z,-0.50
2018-02-07T04:26:12.127Z,-0.50
2018-02-07T04:28:39.553Z,-0.50
2018-02-07T04:31:07.407Z,-0.40
2018-02-07T04:33:34.689Z,-0.40
2018-02-07T04:36:02.047Z,-0.40
2018-02-07T04:38:29.470Z,-0.40
2018-02-07T04:40:56.949Z,-0.40
2018-02-07T04:45:55.868Z,-0.40
2018-02-07T04:48:25.050Z,-0.30
2018-02-07T04:50:53.272Z,-0.30
2018-02-07T04:53:20.627Z,-0.30
2018-02-07T04:55:48.306Z,-0.30
2018-02-07T04:58:15.686Z,-0.30
2018-02-07T05:00:43.125Z,-0.30
2018-02-07T05:03:10.407Z,-0.30
2018-02-07T05:05:37.767Z,-0.30
2018-02-07T05:08:05.146Z,-0.30
2018-02-07T05:10:32.927Z,-0.30
2018-02-07T05:13:00.326Z,-0.30
2018-02-07T05:15:27.766Z,-0.30
2018-02-07T05:17:55.806Z,-0.30
2018-02-07T05:20:23.206Z,-0.30
2018-02-07T05:22:50.767Z,-0.30
2018-02-07T05:25:18.366Z,-0.40
2018-02-07T05:27:45.867Z,-0.40
2018-02-07T05:30:13.406Z,-0.50
2018-02-07T05:32:42.268Z,-0.50
2018-02-07T05:35:09.728Z,-0.60
2018-02-07T05:37:37.126Z,-0.70
2018-02-07T05:40:04.668Z,-0.80
2018-02-07T05:42:31.946Z,-0.80
2018-02-07T05:45:00.671Z,-0.80
2018-02-07T05:47:28.024Z,-0.80
2018-02-07T05:49:55.511Z,-0.90
2018-02-07T05:52:23.706Z,-0.90
2018-02-07T05:54:51.079Z,-0.90
2018-02-07T05:57:18.467Z,-0.90
2018-02-07T05:59:46.048Z,-0.90
2018-02-07T06:02:14.145Z,-0.90
2018-02-07T06:04:41.546Z,-0.90
2018-02-07T06:07:10.046Z,-0.90
2018-02-07T06:09:37.566Z,-0.90
2018-02-07T06:12:05.006Z,-0.90
2018-02-07T06:14:32.613Z,-0.90
2018-02-07T06:17:00.446Z,-0.90
2018-02-07T06:19:27.896Z,-0.90
2018-02-07T06:21:55.234Z,-0.90
2018-02-07T06:24:22.850Z,-0.90
2018-02-07T06:26:50.260Z,-0.90
2018-02-07T06:29:17.929Z,-0.90
2018-02-07T06:31:45.234Z,-0.80
2018-02-07T06:34:12.555Z,-0.90
2018-02-07T06:36:40.030Z,-0.90
2018-02-07T06:39:07.419Z,-0.80
2018-02-07T06:41:34.909Z,-0.90
2018-02-07T06:44:02.333Z,-0.80
2018-02-07T06:46:29.712Z,-0.80
2018-02-07T06:48:59.014Z,-0.80
2018-02-07T06:53:57.926Z,-0.70
2018-02-07T06:56:26.354Z,-0.60
2018-02-07T06:58:53.652Z,-0.60
2018-02-07T07:01:21.246Z,-0.60
2018-02-07T07:06:33.168Z,-0.50
2018-02-07T07:09:00.769Z,-0.50
2018-02-07T07:11:28.008Z,-0.50
2018-02-07T07:13:55.548Z,-0.40
2018-02-07T07:16:23.786Z,-0.40
2018-02-07T07:18:52.226Z,-0.30
2018-02-07T07:21:19.585Z,-0.40
2018-02-07T07:23:47.410Z,-0.30
2018-02-07T07:26:14.890Z,-0.30
2018-02-07T07:28:42.229Z,-0.20
2018-02-07T07:31:09.609Z,-0.20
2018-02-07T07:33:37.431Z,-0.20
2018-02-07T07:36:04.812Z,-0.20
2018-02-07T07:38:32.170Z,-0.20
2018-02-07T07:40:59.431Z,-0.20
2018-02-07T07:43:26.850Z,-0.10
2018-02-07T07:45:55.431Z,-0.10
2018-02-07T07:48:23.649Z,-0.10
2018-02-07T07:50:51.170Z,-0.10
2018-02-07T07:53:18.612Z,-0.10
2018-02-07T07:55:46.130Z,0.00
2018-02-07T07:58:13.681Z,0.00
2018-02-07T08:00:41.267Z,0.10
2018-02-07T08:03:08.647Z,0.10
2018-02-07T08:05:36.452Z,0.10
2018-02-07T08:08:03.769Z,0.10
2018-02-07T08:10:31.147Z,0.20
2018-02-07T08:12:58.647Z,0.20
2018-02-07T08:15:25.927Z,0.20
2018-02-07T08:17:53.247Z,0.30
2018-02-07T08:20:20.586Z,0.30
2018-02-07T08:22:47.986Z,0.30
2018-02-07T08:25:15.487Z,0.30
2018-02-07T08:27:43.007Z,0.30
2018-02-07T08:30:10.387Z,0.30
2018-02-07T08:32:37.767Z,0.30
2018-02-07T08:35:05.060Z,0.20
2018-02-07T08:37:32.468Z,0.20
2018-02-07T08:39:59.826Z,0.30
2018-02-07T08:42:27.489Z,0.30
2018-02-07T08:44:54.887Z,0.30
2018-02-07T08:47:22.247Z,0.30
2018-02-07T08:49:49.667Z,0.30
2018-02-07T08:52:16.927Z,0.20
2018-02-07T08:54:45.207Z,0.20
2018-02-07T08:57:12.767Z,0.20
2018-02-07T08:59:40.167Z,0.20
2018-02-07T09:02:07.627Z,0.30
2018-02-07T09:04:35.387Z,0.30
2018-02-07T09:07:02.687Z,0.40
2018-02-07T09:09:30.431Z,0.30
2018-02-07T09:11:57.727Z,0.40
2018-02-07T09:14:25.107Z,0.40
2018-02-07T09:16:52.448Z,0.30
2018-02-07T09:19:20.289Z,0.40
2018-02-07T09:21:47.807Z,0.40
2018-02-07T09:24:15.667Z,0.40
2018-02-07T09:26:43.107Z,0.40
2018-02-07T09:29:11.948Z,0.50
2018-02-07T09:31:39.548Z,0.50
2018-02-07T09:34:07.007Z,0.40
2018-02-07T09:36:34.826Z,0.50
2018-02-07T09:39:02.367Z,0.50
2018-02-07T09:41:29.746Z,0.60
2018-02-07T09:43:57.130Z,0.60
2018-02-07T09:46:24.847Z,0.60
2018-02-07T09:48:52.307Z,0.70
2018-02-07T09:51:19.967Z,0.70
2018-02-07T09:53:48.147Z,0.70
2018-02-07T09:56:15.486Z,0.60
2018-02-07T09:58:42.888Z,0.80
2018-02-07T10:01:10.267Z,0.90
2018-02-07T10:03:38.773Z,0.80
2018-02-07T10:06:06.153Z,0.80
2018-02-07T10:08:33.846Z,0.80
2018-02-07T10:11:01.287Z,0.70
2018-02-07T10:13:28.787Z,0.70
2018-02-07T10:15:56.146Z,0.70
2018-02-07T10:18:23.655Z,0.60
2018-02-07T10:20:51.067Z,0.60
2018-02-07T10:23:18.370Z,0.60
2018-02-07T10:25:46.308Z,0.50
2018-02-07T10:28:13.887Z,0.50
2018-02-07T10:30:41.268Z,0.60
2018-02-07T10:33:08.813Z,0.60
2018-02-07T10:35:37.027Z,0.50
2018-02-07T10:38:05.287Z,0.50
2018-02-07T10:40:32.655Z,0.50
2018-02-07T10:43:00.431Z,0.50
2018-02-07T10:45:27.867Z,0.40
2018-02-07T10:47:55.348Z,0.30
2018-02-07T10:50:23.147Z,0.30
2018-02-07T10:52:50.528Z,0.50
2018-02-07T10:55:18.027Z,0.50
2018-02-07T10:57:46.347Z,0.60
2018-02-07T11:00:13.726Z,0.60
2018-02-07T11:02:41.027Z,0.70
2018-02-07T11:05:08.447Z,0.90
2018-02-07T11:07:35.728Z,0.80
2018-02-07T11:10:03.146Z,0.70
2018-02-07T11:12:30.747Z,0.70
2018-02-07T11:14:58.208Z,0.70
2018-02-07T11:17:25.628Z,0.70
2018-02-07T11:19:53.047Z,0.70
2018-02-07T11:22:20.447Z,0.60
2018-02-07T11:24:47.970Z,0.50
2018-02-07T11:27:15.487Z,0.50
2018-02-07T11:29:43.010Z,0.50
2018-02-07T11:32:10.647Z,0.50
2018-02-07T11:34:38.088Z,0.60
2018-02-07T11:37:05.490Z,0.60
2018-02-07T11:39:33.007Z,0.60
2018-02-07T11:42:00.287Z,0.80
2018-02-07T11:44:27.649Z,0.90
2018-02-07T11:46:55.289Z,0.90
2018-02-07T11:49:22.711Z,1.00
2018-02-07T11:51:50.377Z,1.10
2018-02-07T11:54:17.732Z,1.10
2018-02-07T11:56:45.397Z,1.20
2018-02-07T11:59:12.848Z,1.20
2018-02-07T12:01:40.170Z,1.30
2018-02-07T12:04:07.447Z,1.20
2018-02-07T12:06:34.847Z,1.20
2018-02-07T12:09:02.367Z,1.20
2018-02-07T12:11:29.689Z,1.20
2018-02-07T12:13:57.927Z,1.20
2018-02-07T12:16:25.430Z,1.20
2018-02-07T12:18:52.807Z,1.20
2018-02-07T12:21:20.747Z,1.20
2018-02-07T12:23:48.228Z,1.20
2018-02-07T12:26:15.887Z,1.30
2018-02-07T12:28:43.181Z,1.30
2018-02-07T12:31:12.248Z,1.20
2018-02-07T12:33:39.607Z,1.20
2018-02-07T12:36:07.148Z,1.20
2018-02-07T12:38:34.636Z,1.10
2018-02-07T12:41:01.951Z,1.10
2018-02-07T12:43:29.470Z,1.00
2018-02-07T12:45:57.167Z,1.00
2018-02-07T12:48:24.707Z,1.00
2018-02-07T12:50:52.052Z,1.10
2018-02-07T12:53:19.857Z,1.10
2018-02-07T12:55:47.174Z,1.00
2018-02-07T12:58:15.893Z,1.00
2018-02-07T13:00:43.293Z,1.00
2018-02-07T13:03:10.911Z,0.90
2018-02-07T13:05:38.631Z,0.90
2018-02-07T13:08:06.092Z,0.90
2018-02-07T13:10:33.451Z,0.70
2018-02-07T13:13:01.089Z,0.60
2018-02-07T13:15:28.868Z,0.60
2018-02-07T13:17:56.178Z,0.60
2018-02-07T13:20:23.704Z,0.60
2018-02-07T13:22:51.167Z,0.60
2018-02-07T13:25:18.909Z,0.70
2018-02-07T13:27:46.493Z,0.70
2018-02-07T13:30:14.907Z,0.70
2018-02-07T13:35:13.946Z,0.80
2018-02-07T13:37:41.266Z,0.80
2018-02-07T13:40:09.288Z,0.90
2018-02-07T13:42:36.547Z,1.00
2018-02-07T13:45:04.206Z,1.00
2018-02-07T13:47:31.525Z,1.00
2018-02-07T13:49:59.767Z,1.00
2018-02-07T13:52:27.181Z,1.00
2018-02-07T13:54:54.515Z,1.00
2018-02-07T13:57:23.522Z,0.90
2018-02-07T13:59:51.409Z,0.90
2018-02-07T14:02:18.959Z,0.90
2018-02-07T14:04:47.148Z,0.90
2018-02-07T14:07:14.469Z,0.90
2018-02-07T14:09:42.269Z,0.90
2018-02-07T14:12:09.908Z,0.80
2018-02-07T14:14:37.225Z,0.80
2018-02-07T14:17:04.932Z,0.80
2018-02-07T14:19:32.274Z,0.70
2018-02-07T14:21:59.768Z,0.70
2018-02-07T14:24:27.111Z,0.70
2018-02-07T14:26:54.989Z,0.60
2018-02-07T14:29:22.708Z,0.60
2018-02-07T14:31:50.406Z,0.60
2018-02-07T14:34:19.028Z,0.50
2018-02-07T14:36:46.527Z,0.40
2018-02-07T14:39:14.588Z,0.40
2018-02-07T14:41:42.467Z,0.40
2018-02-07T14:44:09.908Z,0.40
2018-02-07T14:46:37.729Z,0.40
2018-02-07T14:49:05.525Z,0.40
2018-02-07T14:51:32.874Z,0.30
2018-02-07T14:54:00.295Z,0.20
2018-02-07T14:56:28.034Z,0.10
2018-02-07T14:58:56.789Z,0.10
2018-02-07T15:01:24.187Z,0.20
2018-02-07T15:03:51.789Z,0.20
2018-02-07T15:06:19.386Z,0.20
2018-02-07T15:08:47.210Z,0.10
2018-02-07T15:11:14.510Z,0.10
2018-02-07T15:13:42.027Z,0.10
2018-02-07T15:16:09.490Z,0.10
2018-02-07T15:18:36.893Z,0.10
2018-02-07T15:21:04.487Z,0.10
2018-02-07T15:23:32.487Z,0.10
2018-02-07T15:26:00.467Z,0.00
2018-02-07T15:28:29.167Z,0.00
2018-02-07T15:30:56.774Z,0.00
2018-02-07T15:33:24.390Z,0.10
2018-02-07T15:35:52.430Z,0.10
2018-02-07T15:38:20.827Z,0.10
2018-02-07T15:40:48.294Z,0.10
2018-02-07T15:43:15.824Z,0.10
2018-02-07T15:45:43.249Z,0.10
2018-02-07T15:48:12.399Z,0.10
2018-02-07T15:50:39.968Z,0.10
2018-02-07T15:53:08.208Z,0.20
2018-02-07T15:55:37.010Z,0.10
2018-02-07T15:58:07.008Z,0.10
2018-02-07T16:00:36.167Z,0.10
2018-02-07T16:03:04.605Z,0.10
2018-02-07T16:05:34.448Z,0.10
2018-02-07T16:08:02.026Z,0.20
2018-02-07T16:10:29.409Z,0.20
2018-02-07T16:12:56.883Z,0.20
2018-02-07T16:15:24.463Z,0.30
2018-02-07T16:17:52.061Z,0.30
2018-02-07T16:20:19.689Z,0.30
2018-02-07T16:22:51.231Z,0.30
2018-02-07T16:25:19.850Z,0.30
2018-02-07T16:27:47.296Z,0.30
2018-02-07T16:30:14.661Z,0.30
2018-02-07T16:32:46.348Z,0.30
2018-02-07T16:35:16.491Z,0.20
2018-02-07T16:37:44.079Z,0.20
2018-02-07T16:40:11.757Z,0.20
2018-02-07T16:42:39.081Z,0.20
2018-02-07T16:45:11.057Z,0.20
2018-02-07T16:50:10.464Z,0.30
2018-02-07T16:52:38.201Z,0.30
2018-02-07T16:55:05.489Z,0.40
2018-02-07T16:57:32.994Z,0.40
2018-02-07T17:00:00.451Z,0.40
2018-02-07T17:02:28.192Z,0.40
2018-02-07T17:04:56.179Z,0.40
2018-02-07T17:07:23.771Z,0.40
2018-02-07T17:09:52.513Z,0.50
2018-02-07T17:12:20.126Z,0.50
2018-02-07T17:14:51.068Z,0.50
2018-02-07T17:17:18.590Z,0.50
2018-02-07T17:19:46.669Z,0.50
2018-02-07T17:22:14.050Z,0.40
2018-02-07T17:24:41.589Z,0.40
2018-02-07T17:27:10.030Z,0.30
2018-02-07T17:29:37.494Z,0.30
2018-02-07T17:32:05.013Z,0.30
2018-02-07T17:34:32.270Z,0.30
2018-02-07T17:36:59.748Z,0.30
2018-02-07T17:39:27.133Z,0.40
2018-02-07T17:41:54.432Z,0.40
2018-02-07T17:44:21.812Z,0.40
2018-02-07T17:46:49.245Z,0.50
2018-02-07T17:49:17.387Z,0.50
2018-02-07T17:51:44.824Z,0.50
2018-02-07T17:54:12.008Z,0.50
2018-02-07T17:56:39.608Z,0.60
2018-02-07T17:59:07.166Z,0.60
2018-02-07T18:01:34.566Z,0.60
2018-02-07T18:04:02.069Z,0.60
2018-02-07T18:06:29.412Z,0.60
2018-02-07T18:08:56.767Z,0.60
2018-02-07T18:11:24.208Z,0.50
2018-02-07T18:13:51.688Z,0.50
2018-02-07T18:16:21.370Z,0.40
2018-02-07T18:18:48.810Z,0.40
2018-02-07T18:21:16.170Z,0.50
2018-02-07T18:23:44.448Z,0.60
2018-02-07T18:26:11.911Z,0.60
2018-02-07T18:28:39.330Z,0.60
2018-02-07T18:31:07.071Z,0.60
2018-02-07T18:33:34.367Z,0.60
2018-02-07T18:36:01.596Z,0.60
2018-02-07T18:38:29.029Z,0.60
2018-02-07T18:40:56.627Z,0.60
2018-02-07T18:43:24.157Z,0.60
2018-02-07T18:45:52.249Z,0.60
2018-02-07T18:48:19.817Z,0.60
2018-02-07T18:50:47.403Z,0.60
2018-02-07T18:53:14.897Z,0.30
2018-02-07T18:55:43.327Z,0.00
2018-02-07T18:58:11.133Z,0.00
2018-02-07T19:00:38.665Z,0.00
2018-02-07T19:03:07.809Z,-0.10
2018-02-07T19:05:35.247Z,-0.10
2018-02-07T19:08:02.721Z,0.00
2018-02-07T19:10:30.911Z,0.20
2018-02-07T19:12:58.892Z,0.20
2018-02-07T19:15:27.088Z,0.30
2018-02-07T19:17:56.510Z,0.30
2018-02-07T19:20:25.448Z,0.10
2018-02-07T19:22:52.787Z,-0.10
2018-02-07T19:25:21.667Z,-0.20
2018-02-07T19:27:49.727Z,-0.20
2018-02-07T19:30:19.095Z,-0.10
2018-02-07T19:32:47.919Z,-0.20
2018-02-07T19:35:17.388Z,-0.10
2018-02-07T19:37:45.908Z,-0.10
2018-02-07T19:40:13.587Z,-0.10
2018-02-07T19:42:46.376Z,-0.40
2018-02-07T19:45:14.208Z,-0.60
2018-02-07T19:47:43.053Z,-0.40
2018-02-07T19:50:10.359Z,-0.30
2018-02-07T19:52:37.776Z,-0.20
2018-02-07T19:55:06.238Z,-0.10
2018-02-07T19:57:33.741Z,-0.10
2018-02-07T20:00:01.210Z,0.00
2018-02-07T20:02:28.674Z,0.00
2018-02-07T20:04:56.498Z,0.00
2018-02-07T20:07:23.830Z,0.00
2018-02-07T20:09:51.269Z,0.00
2018-02-07T20:12:18.669Z,0.00
2018-02-07T20:14:46.050Z,0.00
2018-02-07T20:17:13.469Z,0.10
2018-02-07T20:19:40.809Z,0.10
2018-02-07T20:22:08.153Z,0.20
2018-02-07T20:24:36.409Z,0.30
2018-02-07T20:27:03.907Z,0.20
2018-02-07T20:29:31.950Z,0.30
2018-02-07T20:31:59.429Z,0.30
2018-02-07T20:34:26.967Z,0.30
2018-02-07T20:36:54.473Z,0.30
2018-02-07T20:39:22.205Z,0.30
2018-02-07T20:41:49.790Z,0.30
2018-02-07T20:44:17.298Z,0.30
2018-02-07T20:46:44.709Z,0.20
2018-02-07T20:49:12.186Z,0.30
2018-02-07T20:51:39.485Z,0.30
2018-02-07T20:54:07.288Z,0.30
2018-02-07T20:56:34.846Z,0.30
2018-02-07T20:59:03.006Z,0.30
2018-02-07T21:01:30.846Z,0.30
2018-02-07T21:03:58.368Z,0.20
2018-02-07T21:06:25.687Z,0.10
2018-02-07T21:08:52.972Z,0.10
2018-02-07T21:11:20.325Z,0.10
2018-02-07T21:13:47.746Z,0.10
2018-02-07T21:16:15.725Z,0.20
2018-02-07T21:18:43.027Z,0.10
2018-02-07T21:21:10.547Z,-0.10
2018-02-07T21:23:38.364Z,-0.10
2018-02-07T21:26:05.933Z,0.00
2018-02-07T21:28:33.247Z,0.00
2018-02-07T21:31:00.768Z,-0.10
2018-02-07T21:33:28.287Z,0.00
2018-02-07T21:35:55.693Z,0.00
2018-02-07T21:38:23.090Z,0.10
2018-02-07T21:40:50.534Z,0.10
2018-02-07T21:43:17.909Z,0.20
2018-02-07T21:45:45.576Z,0.20
2018-02-07T21:48:13.049Z,0.20
2018-02-07T21:50:40.429Z,0.10
2018-02-07T21:53:08.529Z,0.20
2018-02-07T21:55:36.429Z,0.20
2018-02-07T21:58:05.725Z,0.20
2018-02-07T22:00:34.209Z,0.30
2018-02-07T22:03:01.689Z,0.30
2018-02-07T22:05:29.569Z,0.40
2018-02-07T22:07:56.910Z,0.40
2018-02-07T22:10:24.289Z,0.40
2018-02-07T22:12:51.691Z,0.40
2018-02-07T22:15:19.547Z,0.40
2018-02-07T22:17:46.988Z,0.40
2018-02-07T22:20:14.408Z,0.40
2018-02-07T22:22:41.748Z,0.40
2018-02-07T22:25:09.429Z,0.40
2018-02-07T22:27:36.806Z,0.50
2018-02-07T22:30:04.171Z,0.40
2018-02-07T22:32:31.588Z,0.40
2018-02-07T22:34:58.848Z,0.40
2018-02-07T22:37:26.444Z,0.40
2018-02-07T22:39:53.907Z,0.40
2018-02-07T22:42:21.647Z,0.40
2018-02-07T22:44:49.127Z,0.40
2018-02-07T22:47:16.747Z,0.40
2018-02-07T22:49:44.606Z,0.40
2018-02-07T22:52:12.065Z,0.40
2018-02-07T22:54:39.426Z,0.40
2018-02-07T22:57:07.126Z,0.30
2018-02-07T22:59:34.489Z,0.30
2018-02-07T23:02:02.266Z,0.20
2018-02-07T23:04:29.714Z,0.30
2018-02-07T23:06:56.926Z,0.30
2018-02-07T23:09:25.308Z,0.30
2018-02-07T23:11:52.605Z,0.30
2018-02-07T23:14:19.826Z,0.30
2018-02-07T23:16:47.166Z,0.30
2018-02-07T23:19:14.525Z,0.30
2018-02-07T23:21:41.967Z,0.40
2018-02-07T23:24:09.325Z,0.40
2018-02-07T23:26:37.926Z,0.40
2018-02-07T23:29:05.466Z,0.40
2018-02-07T23:31:32.767Z,0.40
2018-02-07T23:34:00.106Z,0.40
2018-02-07T23:36:27.505Z,0.40
2018-02-07T23:38:55.008Z,0.40
2018-02-07T23:41:22.446Z,0.40
2018-02-07T23:43:49.846Z,0.40
2018-02-07T23:46:17.125Z,0.30
2018-02-07T23:48:45.306Z,0.40
2018-02-07T23:51:12.705Z,0.40
2018-02-07T23:53:40.125Z,0.40
2018-02-07T23:56:07.806Z,0.40
2018-02-07T23:58:35.328Z,0.40
